Observation data for Northwest San Angelo on 07/03/2020      Previous  Date  Next       Current Mesonet Observations  Soil Data  Daily Summary Page  Observations in Plain Language
KASU 030500Z 10004KT 25/18 A30 RMK A01 T02540178  RH  066%=      5-min Rain = 0
KASU 030505Z 11004KT 25/18 A30 RMK A01 T02530178  RH  067%=      5-min Rain = 0
KASU 030510Z 11005KT 25/18 A30 RMK A01 T02540176  RH  065%=      5-min Rain = 0
KASU 030515Z 10005KT 26/17 A30 RMK A01 T02570174  RH  064%=      5-min Rain = 0
KASU 030520Z 11005KT 25/18 A30 RMK A01 T02530177  RH  066%=      5-min Rain = 0
KASU 030525Z 12005KT 26/17 A30 RMK A01 T02590170  RH  061%=      5-min Rain = 0
KASU 030530Z 12005KT 26/17 A30 RMK A01 T02620168  RH  059%=      5-min Rain = 0
KASU 030535Z 12004KT 26/17 A3001 RMK A01 T02610167  RH  059%=      5-min Rain = 0
KASU 030540Z 13005KT 26/17 A3001 RMK A01 T02610167  RH  059%=      5-min Rain = 0
KASU 030545Z 13005KT 26/17 A3001 RMK A01 T02600167  RH  060%=      5-min Rain = 0
KASU 030550Z 13005KT 26/17 A3001 RMK A01 T02580168  RH  060%=      5-min Rain = 0
KASU 030555Z 13005KT 26/17 A3001 RMK A01 T02580169  RH  061%=      5-min Rain = 0
KASU 030600Z 14005KT 26/17 A3001 RMK A01 T02550171  RH  063%=      5-min Rain = 0
KASU 030605Z 15005KT 25/17 A30 RMK A01 T02530171  RH  064%=      5-min Rain = 0
KASU 030610Z 16004KT 25/17 A30 RMK A01 T02510171  RH  064%=      5-min Rain = 0
KASU 030615Z 16004KT 25/17 A30 RMK A01 T02540170  RH  063%=      5-min Rain = 0
KASU 030620Z 17004KT 26/17 A30 RMK A01 T02550170  RH  062%=      5-min Rain = 0
KASU 030625Z 17003KT 26/17 A30 RMK A01 T02570169  RH  061%=      5-min Rain = 0
KASU 030630Z 17003KT 26/17 A30 RMK A01 T02550170  RH  062%=      5-min Rain = 0
KASU 030635Z 16004KT 26/17 A30 RMK A01 T02550169  RH  062%=      5-min Rain = 0
KASU 030640Z 16005KT 26/17 A2999 RMK A01 T02550169  RH  062%=      5-min Rain = 0
KASU 030645Z 16005KT 25/17 A2999 RMK A01 T02540170  RH  063%=      5-min Rain = 0
KASU 030650Z 16005KT 25/17 A2999 RMK A01 T02540170  RH  063%=      5-min Rain = 0
KASU 030655Z 17005KT 25/17 A2999 RMK A01 T02540171  RH  063%=      5-min Rain = 0
KASU 030700Z 17004KT 25/17 A2999 RMK A01 T02530172  RH  064%=      5-min Rain = 0
KASU 030705Z 17004KT 25/17 A2999 RMK A01 T02510172  RH  065%=      5-min Rain = 0
KASU 030710Z 16004KT 25/17 A2999 RMK A01 T02490172  RH  066%=      5-min Rain = 0
KASU 030715Z 16003KT 25/17 A2999 RMK A01 T02490172  RH  066%=      5-min Rain = 0
KASU 030720Z 16003KT 25/17 A2999 RMK A01 T02490172  RH  066%=      5-min Rain = 0
KASU 030725Z 16003KT 25/17 A2999 RMK A01 T02490173  RH  066%=      5-min Rain = 0
KASU 030730Z 17003KT 25/17 A2999 RMK A01 T02490173  RH  066%=      5-min Rain = 0
KASU 030735Z 19003KT 25/18 A2999 RMK A01 T02480175  RH  067%=      5-min Rain = 0
KASU 030740Z 21004KT 25/17 A2999 RMK A01 T02500174  RH  066%=      5-min Rain = 0
KASU 030745Z 21004KT 25/17 A2998 RMK A01 T02490173  RH  066%=      5-min Rain = 0
KASU 030750Z 20004KT 25/17 A2999 RMK A01 T02480173  RH  066%=      5-min Rain = 0
KASU 030755Z 20004KT 25/17 A2998 RMK A01 T02470174  RH  067%=      5-min Rain = 0
KASU 030800Z 20004KT 24/17 A2998 RMK A01 T02440174  RH  068%=      5-min Rain = 0
KASU 030805Z 19004KT 24/18 A2998 RMK A01 T02420175  RH  070%=      5-min Rain = 0
KASU 030810Z 17003KT 24/18 A2999 RMK A01 T02380175  RH  071%=      5-min Rain = 0
KASU 030815Z 16003KT 24/18 A2999 RMK A01 T02350177  RH  073%=      5-min Rain = 0
KASU 030820Z 17003KT 23/18 A2999 RMK A01 T02310177  RH  075%=      5-min Rain = 0
KASU 030825Z 17003KT 23/18 A2998 RMK A01 T02310177  RH  075%=      5-min Rain = 0
KASU 030830Z 16005KT 23/18 A2998 RMK A01 T02330176  RH  074%=      5-min Rain = 0
KASU 030835Z 16006KT 24/18 A2998 RMK A01 T02370175  RH  072%=      5-min Rain = 0
KASU 030840Z 16006KT 24/18 A2998 RMK A01 T02370176  RH  072%=      5-min Rain = 0
KASU 030845Z 16006KT 24/18 A2998 RMK A01 T02370177  RH  073%=      5-min Rain = 0
KASU 030850Z 15006KT 24/18 A2999 RMK A01 T02350177  RH  074%=      5-min Rain = 0
KASU 030855Z 15005KT 23/18 A2999 RMK A01 T02340177  RH  074%=      5-min Rain = 0
KASU 030900Z 16005KT 24/18 A2999 RMK A01 T02350177  RH  074%=      5-min Rain = 0
KASU 030905Z 16005KT 24/18 A2999 RMK A01 T02360177  RH  073%=      5-min Rain = 0
KASU 030910Z 17005KT 24/18 A2999 RMK A01 T02370177  RH  073%=      5-min Rain = 0
KASU 030915Z 16005KT 24/18 A2999 RMK A01 T02390177  RH  072%=      5-min Rain = 0
KASU 030920Z 17005KT 24/18 A2999 RMK A01 T02400178  RH  072%=      5-min Rain = 0
KASU 030925Z 16004KT 24/18 A2999 RMK A01 T02380178  RH  073%=      5-min Rain = 0
KASU 030930Z 16004KT 24/18 A30 RMK A01 T02370179  RH  073%=      5-min Rain = 0
KASU 030935Z 16004KT 24/18 A30 RMK A01 T02350180  RH  075%=      5-min Rain = 0
KASU 030940Z 16004KT 23/18 A30 RMK A01 T02330180  RH  076%=      5-min Rain = 0
KASU 030945Z 16003KT 23/18 A30 RMK A01 T02310180  RH  077%=      5-min Rain = 0
KASU 030950Z 17003KT 23/18 A30 RMK A01 T02300179  RH  077%=      5-min Rain = 0
KASU 030955Z 19002KT 23/18 A30 RMK A01 T02290180  RH  078%=      5-min Rain = 0
KASU 031000Z 18002KT 23/18 A30 RMK A01 T02310179  RH  077%=      5-min Rain = 0
KASU 031005Z 17003KT 23/18 A30 RMK A01 T02340179  RH  075%=      5-min Rain = 0
KASU 031010Z 16003KT 23/18 A3001 RMK A01 T02330180  RH  076%=      5-min Rain = 0
KASU 031015Z 15003KT 23/18 A3001 RMK A01 T02320181  RH  077%=      5-min Rain = 0
KASU 031020Z 14002KT 23/18 A3001 RMK A01 T02300181  RH  078%=      5-min Rain = 0
KASU 031025Z 13002KT 23/18 A3002 RMK A01 T02290181  RH  078%=      5-min Rain = 0
KASU 031030Z 12002KT 23/18 A3002 RMK A01 T02300181  RH  078%=      5-min Rain = 0
KASU 031035Z 12002KT 23/18 A3002 RMK A01 T02280182  RH  079%=      5-min Rain = 0
KASU 031040Z 12002KT 23/18 A3002 RMK A01 T02260182  RH  080%=      5-min Rain = 0
KASU 031045Z 13002KT 23/18 A3002 RMK A01 T02260182  RH  080%=      5-min Rain = 0
KASU 031050Z 13002KT 23/18 A3002 RMK A01 T02280182  RH  079%=      5-min Rain = 0
KASU 031055Z 15002KT 23/18 A3002 RMK A01 T02280182  RH  079%=      5-min Rain = 0
KASU 031100Z 19001KT 23/18 A3002 RMK A01 T02260183  RH  081%=      5-min Rain = 0
KASU 031105Z 21001KT 23/18 A3002 RMK A01 T02250184  RH  082%=      5-min Rain = 0
KASU 031110Z 18002KT 22/18 A3002 RMK A01 T02230184  RH  083%=      5-min Rain = 0
KASU 031115Z 18001KT 22/18 A3002 RMK A01 T02240184  RH  083%=      5-min Rain = 0
KASU 031120Z 18002KT 23/18 A3002 RMK A01 T02250184  RH  082%=      5-min Rain = 0
KASU 031125Z 17001KT 23/18 A3002 RMK A01 T02260184  RH  082%=      5-min Rain = 0
KASU 031130Z 19001KT 23/19 A3002 RMK A01 T02270185  RH  081%=      5-min Rain = 0
KASU 031135Z 19001KT 23/19 A3002 RMK A01 T02250185  RH  082%=      5-min Rain = 0
KASU 031140Z 16002KT 22/19 A3002 RMK A01 T02220185  RH  084%=      5-min Rain = 0
KASU 031145Z 13002KT 22/19 A3002 RMK A01 T02200185  RH  085%=      5-min Rain = 0
KASU 031150Z 13002KT 22/19 A3003 RMK A01 T02180185  RH  086%=      5-min Rain = 0
KASU 031155Z 12002KT 22/19 A3003 RMK A01 T02180186  RH  087%=      5-min Rain = 0
KASU 031200Z 10001KT 22/19 A3003 RMK A01 T02180187  RH  087%=      5-min Rain = 0
KASU 031205Z 08001KT 22/19 A3004 RMK A01 T02190188  RH  087%=      5-min Rain = 0
KASU 031210Z 09001KT 22/19 A3004 RMK A01 T02200189  RH  087%=      5-min Rain = 0
KASU 031215Z 07001KT 22/19 A3004 RMK A01 T02230190  RH  086%=      5-min Rain = 0
KASU 031220Z 09002KT 22/19 A3004 RMK A01 T02240191  RH  086%=      5-min Rain = 0
KASU 031225Z 11002KT 23/19 A3004 RMK A01 T02250193  RH  087%=      5-min Rain = 0
KASU 031230Z 13002KT 23/20 A3004 RMK A01 T02270195  RH  087%=      5-min Rain = 0
KASU 031235Z 10002KT 23/20 A3004 RMK A01 T02300195  RH  085%=      5-min Rain = 0
KASU 031240Z 09003KT 23/20 A3005 RMK A01 T02320197  RH  085%=      5-min Rain = 0
KASU 031245Z 09002KT 23/20 A3004 RMK A01 T02340198  RH  085%=      5-min Rain = 0
KASU 031250Z 11002KT 24/20 A3004 RMK A01 T02370201  RH  085%=      5-min Rain = 0
KASU 031255Z 12003KT 24/20 A3004 RMK A01 T02400203  RH  085%=      5-min Rain = 0
KASU 031300Z 14003KT 24/20 A3004 RMK A01 T02420203  RH  083%=      5-min Rain = 0
KASU 031305Z 14003KT 25/21 A3004 RMK A01 T02460206  RH  083%=      5-min Rain = 0
KASU 031310Z 16004KT 25/21 A3004 RMK A01 T02480206  RH  082%=      5-min Rain = 0
KASU 031315Z 17004KT 25/21 A3004 RMK A01 T02500208  RH  082%=      5-min Rain = 0
KASU 031320Z 18005KT 25/21 A3004 RMK A01 T02500208  RH  082%=      5-min Rain = 0
KASU 031325Z 17004KT 25/21 A3005 RMK A01 T02510208  RH  082%=      5-min Rain = 0
KASU 031330Z 18005KT 25/21 A3005 RMK A01 T02540209  RH  081%=      5-min Rain = 0
KASU 031335Z 17005KT 26/21 A3005 RMK A01 T02560209  RH  080%=      5-min Rain = 0
KASU 031340Z 19006KT 26/21 A3005 RMK A01 T02590210  RH  079%=      5-min Rain = 0
KASU 031345Z 18006KT 26/21 A3005 RMK A01 T02610210  RH  078%=      5-min Rain = 0
KASU 031350Z 18007KT 26/21 A3005 RMK A01 T02620207  RH  076%=      5-min Rain = 0
KASU 031355Z 19008KT 26/21 A3005 RMK A01 T02630206  RH  076%=      5-min Rain = 0
KASU 031400Z 19006KT 26/21 A3005 RMK A01 T02640206  RH  075%=      5-min Rain = 0
KASU 031405Z 18006KT 27/21 A3005 RMK A01 T02680205  RH  073%=      5-min Rain = 0
KASU 031410Z 18007G12KT 27/20 A3005 RMK A01 T02700204  RH  071%=      5-min Rain = 0
KASU 031415Z 18009KT 27/20 A3005 RMK A01 T02720201  RH  069%=      5-min Rain = 0
KASU 031420Z 19007KT 27/20 A3005 RMK A01 T02730199  RH  068%=      5-min Rain = 0
KASU 031425Z 18007KT 28/20 A3006 RMK A01 T02750201  RH  068%=      5-min Rain = 0
KASU 031430Z 18007KT 28/20 A3006 RMK A01 T02770199  RH  066%=      5-min Rain = 0
KASU 031435Z 18008KT 28/19 A3006 RMK A01 T02780194  RH  064%=      5-min Rain = 0
KASU 031440Z 20006KT 28/20 A3006 RMK A01 T02810198  RH  064%=      5-min Rain = 0
KASU 031445Z 19005KT 28/20 A3006 RMK A01 T02790197  RH  064%=      5-min Rain = 0
KASU 031450Z 19005KT 28/20 A3006 RMK A01 T02840196  RH  063%=      5-min Rain = 0
KASU 031455Z 17007KT 29/19 A3006 RMK A01 T02860190  RH  060%=      5-min Rain = 0
KASU 031500Z 19006KT 29/19 A3006 RMK A01 T02850193  RH  061%=      5-min Rain = 0
KASU 031505Z 17007KT 29/19 A3006 RMK A01 T02880191  RH  059%=      5-min Rain = 0
KASU 031510Z 16007KT 29/19 A3006 RMK A01 T02930191  RH  057%=      5-min Rain = 0
KASU 031515Z 18008KT 29/19 A3006 RMK A01 T02940188  RH  056%=      5-min Rain = 0
KASU 031520Z 17004KT 30/19 A3006 RMK A01 T02960190  RH  056%=      5-min Rain = 0
KASU 031525Z 13005KT 30/19 A3006 RMK A01 T02990192  RH  056%=      5-min Rain = 0
KASU 031530Z 14005KT 30/19 A3006 RMK A01 T03010191  RH  055%=      5-min Rain = 0
KASU 031535Z 16005G10KT 30/19 A3006 RMK A01 T02990190  RH  055%=      5-min Rain = 0
KASU 031540Z 15005KT 30/19 A3006 RMK A01 T03030191  RH  054%=      5-min Rain = 0
KASU 031545Z 15006KT 31/19 A3006 RMK A01 T03070192  RH  053%=      5-min Rain = 0
KASU 031550Z 15007KT 31/19 A3006 RMK A01 T03070188  RH  052%=      5-min Rain = 0
KASU 031555Z 16006KT 31/19 A3006 RMK A01 T03050185  RH  051%=      5-min Rain = 0
KASU 031600Z 14007KT 31/19 A3006 RMK A01 T03100189  RH  051%=      5-min Rain = 0
KASU 031605Z 13007KT 31/19 A3006 RMK A01 T03100186  RH  050%=      5-min Rain = 0
KASU 031610Z 13007KT 31/19 A3006 RMK A01 T03090186  RH  051%=      5-min Rain = 0
KASU 031615Z 14004KT 31/19 A3006 RMK A01 T03090185  RH  050%=      5-min Rain = 0
KASU 031620Z 16006G12KT 31/19 A3006 RMK A01 T03090185  RH  050%=      5-min Rain = 0
KASU 031625Z 14005G10KT 31/19 A3006 RMK A01 T03120187  RH  050%=      5-min Rain = 0
KASU 031630Z 14006G12KT 31/19 A3006 RMK A01 T03140188  RH  050%=      5-min Rain = 0
KASU 031635Z 12005KT 32/19 A3006 RMK A01 T03160188  RH  049%=      5-min Rain = 0
KASU 031640Z 14006KT 32/19 A3006 RMK A01 T03190187  RH  048%=      5-min Rain = 0
KASU 031645Z 14005KT 32/18 A3005 RMK A01 T03180184  RH  047%=      5-min Rain = 0
KASU 031650Z 14004KT 32/18 A3005 RMK A01 T03200183  RH  047%=      5-min Rain = 0
KASU 031655Z 14005G10KT 32/18 A3005 RMK A01 T03200183  RH  046%=      5-min Rain = 0
KASU 031700Z 14006KT 32/18 A3005 RMK A01 T03220184  RH  046%=      5-min Rain = 0
KASU 031705Z 13005KT 32/18 A3005 RMK A01 T03210180  RH  045%=      5-min Rain = 0
KASU 031710Z 15006KT 33/18 A3005 RMK A01 T03250183  RH  046%=      5-min Rain = 0
KASU 031715Z 15003G8KT 33/18 A3005 RMK A01 T03260180  RH  044%=      5-min Rain = 0
KASU 031720Z 15005KT 33/18 A3005 RMK A01 T03290181  RH  044%=      5-min Rain = 0
KASU 031725Z 13005KT 33/18 A3005 RMK A01 T03300181  RH  043%=      5-min Rain = 0
KASU 031730Z 12005KT 33/18 A3005 RMK A01 T03300180  RH  043%=      5-min Rain = 0
KASU 031735Z 16005KT 33/18 A3005 RMK A01 T03310180  RH  043%=      5-min Rain = 0
KASU 031740Z 12005KT 34/18 A3005 RMK A01 T03350180  RH  042%=      5-min Rain = 0
KASU 031745Z 14008KT 34/18 A3004 RMK A01 T03370179  RH  041%=      5-min Rain = 0
KASU 031750Z 16006KT 34/17 A3004 RMK A01 T03350174  RH  040%=      5-min Rain = 0
KASU 031755Z 14008G13KT 34/18 A3004 RMK A01 T03370175  RH  040%=      5-min Rain = 0
KASU 031800Z 15007G12KT 34/17 A3004 RMK A01 T03360171  RH  039%=      5-min Rain = 0
KASU 031805Z 14005G12KT 34/17 A3004 RMK A01 T03350171  RH  040%=      5-min Rain = 0
KASU 031810Z 15006G11KT 34/17 A3004 RMK A01 T03370171  RH  039%=      5-min Rain = 0
KASU 031815Z 14007KT 34/17 A3004 RMK A01 T03400167  RH  038%=      5-min Rain = 0
KASU 031820Z 14005KT 34/17 A3003 RMK A01 T03370166  RH  038%=      5-min Rain = 0
KASU 031825Z 15009G14KT 34/17 A3003 RMK A01 T03400170  RH  038%=      5-min Rain = 0
KASU 031830Z 16008KT 34/17 A3003 RMK A01 T03430168  RH  037%=      5-min Rain = 0
KASU 031835Z 15006G13KT 34/16 A3003 RMK A01 T03410163  RH  036%=      5-min Rain = 0
KASU 031840Z 11006G13KT 34/16 A3003 RMK A01 T03410162  RH  036%=      5-min Rain = 0
KASU 031845Z 15006KT 35/16 A3003 RMK A01 T03470164  RH  035%=      5-min Rain = 0
KASU 031850Z 15007G13KT 35/16 A3003 RMK A01 T03470158  RH  034%=      5-min Rain = 0
KASU 031855Z 14007KT 34/16 A3003 RMK A01 T03440162  RH  035%=      5-min Rain = 0
KASU 031900Z 17007G12KT 34/16 A3002 RMK A01 T03440160  RH  035%=      5-min Rain = 0
KASU 031905Z 16008KT 35/15 A3002 RMK A01 T03490152  RH  032%=      5-min Rain = 0
KASU 031910Z 15010G15KT 35/16 A3002 RMK A01 T03490155  RH  033%=      5-min Rain = 0
KASU 031915Z 16006G11KT 35/16 A3002 RMK A01 T03500157  RH  033%=      5-min Rain = 0
KASU 031920Z 15009KT 35/15 A3002 RMK A01 T03520154  RH  032%=      5-min Rain = 0
KASU 031925Z 13006KT 35/16 A3002 RMK A01 T03540157  RH  033%=      5-min Rain = 0
KASU 031930Z 09006G13KT 35/15 A3001 RMK A01 T03500150  RH  032%=      5-min Rain = 0
KASU 031935Z 10008KT 35/16 A3001 RMK A01 T03500157  RH  033%=      5-min Rain = 0
KASU 031940Z 12008KT 35/16 A3001 RMK A01 T03530157  RH  032%=      5-min Rain = 0
KASU 031945Z 15008KT 35/15 A3001 RMK A01 T03530148  RH  031%=      5-min Rain = 0
KASU 031950Z 14011KT 35/14 A3001 RMK A01 T03530139  RH  029%=      5-min Rain = 0
KASU 031955Z 13010KT 35/14 A3001 RMK A01 T03530137  RH  028%=      5-min Rain = 0
KASU 032000Z 14005G10KT 35/13 A30 RMK A01 T03530127  RH  027%=      5-min Rain = 0
KASU 032005Z 13006KT 35/13 A30 RMK A01 T03540130  RH  027%=      5-min Rain = 0
KASU 032010Z 11009KT 36/13 A30 RMK A01 T03560126  RH  026%=      5-min Rain = 0
KASU 032015Z 16010G15KT 36/13 A30 RMK A01 T03600126  RH  026%=      5-min Rain = 0
KASU 032020Z 17009KT 36/12 A2999 RMK A01 T03570123  RH  025%=      5-min Rain = 0
KASU 032025Z 15007KT 36/13 A2999 RMK A01 T03580125  RH  026%=      5-min Rain = 0
KASU 032030Z 12009KT 36/12 A2999 RMK A01 T03600121  RH  025%=      5-min Rain = 0
KASU 032035Z 13011G18KT 36/12 A2999 RMK A01 T03570124  RH  026%=      5-min Rain = 0
KASU 032040Z 15008G14KT 36/12 A2999 RMK A01 T03590123  RH  025%=      5-min Rain = 0
KASU 032045Z 13007KT 36/12 A2999 RMK A01 T03590120  RH  025%=      5-min Rain = 0
KASU 032050Z 16007G12KT 36/12 A2999 RMK A01 T03590119  RH  024%=      5-min Rain = 0
KASU 032055Z 18005G10KT 36/12 A2998 RMK A01 T03610122  RH  025%=      5-min Rain = 0
KASU 032100Z 18006KT 36/12 A2998 RMK A01 T03620118  RH  024%=      5-min Rain = 0
KASU 032105Z 17004KT 36/12 A2998 RMK A01 T03590116  RH  024%=      5-min Rain = 0
KASU 032110Z 18009KT 36/11 A2998 RMK A01 T03640110  RH  022%=      5-min Rain = 0
KASU 032115Z 17007KT 36/11 A2998 RMK A01 T03640109  RH  022%=      5-min Rain = 0
KASU 032120Z 18005G10KT 37/11 A2997 RMK A01 T03650108  RH  022%=      5-min Rain = 0
KASU 032125Z 15007KT 36/11 A2997 RMK A01 T03640106  RH  022%=      5-min Rain = 0
KASU 032130Z 13007G12KT 37/10 A2997 RMK A01 T03650104  RH  021%=      5-min Rain = 0
KASU 032135Z 11008KT 36/11 A2997 RMK A01 T03610108  RH  022%=      5-min Rain = 0
KASU 032140Z 14008KT 37/12 A2996 RMK A01 T03650115  RH  023%=      5-min Rain = 0
KASU 032145Z 14008KT 37/11 A2996 RMK A01 T03660114  RH  023%=      5-min Rain = 0
KASU 032150Z 12008KT 36/11 A2996 RMK A01 T03640112  RH  023%=      5-min Rain = 0
KASU 032155Z 15006KT 37/11 A2996 RMK A01 T03670109  RH  022%=      5-min Rain = 0
KASU 032200Z 15007KT 37/10 A2996 RMK A01 T03650104  RH  021%=      5-min Rain = 0
KASU 032205Z 14004KT 37/11 A2996 RMK A01 T03660105  RH  021%=      5-min Rain = 0
KASU 032210Z 16003G8KT 37/10 A2995 RMK A01 T03690103  RH  021%=      5-min Rain = 0
KASU 032215Z 15010KT 37/11 A2995 RMK A01 T03680109  RH  022%=      5-min Rain = 0
KASU 032220Z 14008KT 37/10 A2995 RMK A01 T03660100  RH  021%=      5-min Rain = 0
KASU 032225Z 15006KT 37/10 A2995 RMK A01 T03670103  RH  021%=      5-min Rain = 0
KASU 032230Z 15008G13KT 37/10 A2995 RMK A01 T03670103  RH  021%=      5-min Rain = 0
KASU 032235Z 15007G14KT 37/11 A2995 RMK A01 T03680111  RH  022%=      5-min Rain = 0
KASU 032240Z 14008G13KT 37/11 A2994 RMK A01 T03660110  RH  022%=      5-min Rain = 0
KASU 032245Z 14007KT 37/11 A2994 RMK A01 T03680110  RH  022%=      5-min Rain = 0
KASU 032250Z 10002KT 37/11 A2994 RMK A01 T03670109  RH  022%=      5-min Rain = 0
KASU 032255Z 17006G11KT 37/11 A2994 RMK A01 T03690112  RH  022%=      5-min Rain = 0
KASU 032300Z 16005G12KT 37/11 A2994 RMK A01 T03680108  RH  022%=      5-min Rain = 0
KASU 032305Z 18007G12KT 37/11 A2994 RMK A01 T03660108  RH  022%=      5-min Rain = 0
KASU 032310Z 14008G13KT 37/11 A2994 RMK A01 T03670108  RH  022%=      5-min Rain = 0
KASU 032315Z 13008KT 36/11 A2994 RMK A01 T03630111  RH  023%=      5-min Rain = 0
KASU 032320Z 13007KT 36/11 A2994 RMK A01 T03640110  RH  022%=      5-min Rain = 0
KASU 032325Z 13006KT 36/11 A2994 RMK A01 T03640111  RH  022%=      5-min Rain = 0
KASU 032330Z 09005KT 36/12 A2994 RMK A01 T03620115  RH  023%=      5-min Rain = 0
KASU 032335Z 13006G11KT 36/11 A2994 RMK A01 T03630110  RH  022%=      5-min Rain = 0
KASU 032340Z 15006KT 36/11 A2994 RMK A01 T03630110  RH  022%=      5-min Rain = 0
KASU 032345Z 13005KT 37/12 A2994 RMK A01 T03650115  RH  023%=      5-min Rain = 0
KASU 032350Z 14007KT 36/11 A2994 RMK A01 T03620110  RH  023%=      5-min Rain = 0
KASU 032355Z 13006KT 36/11 A2994 RMK A01 T03620107  RH  022%=      5-min Rain = 0
KASU 040000Z 15007KT 36/11 A2994 RMK A01 T03610106  RH  022%=      5-min Rain = 0
KASU 040005Z 14006KT 36/11 A2994 RMK A01 T03610108  RH  022%=      5-min Rain = 0
KASU 040010Z 14006KT 36/11 A2994 RMK A01 T03610107  RH  022%=      5-min Rain = 0
KASU 040015Z 14006KT 36/11 A2994 RMK A01 T03600110  RH  023%=      5-min Rain = 0
KASU 040020Z 14005KT 36/11 A2994 RMK A01 T03590109  RH  023%=      5-min Rain = 0
KASU 040025Z 13005KT 36/12 A2994 RMK A01 T03580115  RH  024%=      5-min Rain = 0
KASU 040030Z 15005KT 36/12 A2994 RMK A01 T03560118  RH  025%=      5-min Rain = 0
KASU 040035Z 14005KT 36/12 A2994 RMK A01 T03550117  RH  025%=      5-min Rain = 0
KASU 040040Z 12005KT 35/12 A2994 RMK A01 T03520122  RH  026%=      5-min Rain = 0
KASU 040045Z 11006KT 35/12 A2994 RMK A01 T03500116  RH  025%=      5-min Rain = 0
KASU 040050Z 12005KT 35/11 A2994 RMK A01 T03490110  RH  024%=      5-min Rain = 0
KASU 040055Z 12004KT 35/12 A2994 RMK A01 T03480117  RH  026%=      5-min Rain = 0
KASU 040100Z 12005KT 34/12 A2994 RMK A01 T03430119  RH  027%=      5-min Rain = 0
KASU 040105Z 12006KT 34/11 A2994 RMK A01 T03410111  RH  026%=      5-min Rain = 0
KASU 040110Z 13006KT 34/11 A2994 RMK A01 T03380112  RH  026%=      5-min Rain = 0
KASU 040115Z 13005KT 33/12 A2994 RMK A01 T03340119  RH  028%=      5-min Rain = 0
KASU 040120Z 11004KT 33/13 A2994 RMK A01 T03280125  RH  030%=      5-min Rain = 0
KASU 040125Z 12004KT 33/12 A2994 RMK A01 T03250122  RH  030%=      5-min Rain = 0
KASU 040130Z 12005KT 33/12 A2994 RMK A01 T03270116  RH  029%=      5-min Rain = 0
KASU 040135Z 11004KT 32/12 A2994 RMK A01 T03210122  RH  031%=      5-min Rain = 0
KASU 040140Z 11004KT 31/13 A2995 RMK A01 T03140127  RH  033%=      5-min Rain = 0
KASU 040145Z 11004KT 31/13 A2995 RMK A01 T03090127  RH  034%=      5-min Rain = 0
KASU 040150Z 10005KT 31/13 A2995 RMK A01 T03080126  RH  034%=      5-min Rain = 0
KASU 040155Z 10005KT 30/13 A2995 RMK A01 T03040127  RH  035%=      5-min Rain = 0
KASU 040200Z 10004KT 30/12 A2995 RMK A01 T03040123  RH  034%=      5-min Rain = 0
KASU 040205Z 10004KT 31/12 A2995 RMK A01 T03050122  RH  034%=      5-min Rain = 0
KASU 040210Z 10003KT 31/11 A2995 RMK A01 T03090114  RH  031%=      5-min Rain = 0
KASU 040215Z 11003KT 31/12 A2995 RMK A01 T03100115  RH  031%=      5-min Rain = 0
KASU 040220Z 11003KT 31/12 A2995 RMK A01 T03050116  RH  032%=      5-min Rain = 0
KASU 040225Z 10003KT 30/11 A2995 RMK A01 T03020114  RH  033%=      5-min Rain = 0
KASU 040230Z 09002KT 30/12 A2996 RMK A01 T02980115  RH  033%=      5-min Rain = 0
KASU 040235Z 08002KT 29/13 A2996 RMK A01 T02940128  RH  038%=      5-min Rain = 0
KASU 040240Z 05002KT 29/15 A2996 RMK A01 T02880149  RH  045%=      5-min Rain = 0
KASU 040245Z 05002KT 28/15 A2996 RMK A01 T02820154  RH  048%=      5-min Rain = 0
KASU 040250Z 06002KT 28/16 A2996 RMK A01 T02780163  RH  052%=      5-min Rain = 0
KASU 040255Z 05002KT 27/16 A2997 RMK A01 T02730162  RH  053%=      5-min Rain = 0
KASU 040300Z 05002KT 27/17 A2997 RMK A01 T02700170  RH  057%=      5-min Rain = 0
KASU 040305Z 05001KT 27/16 A2997 RMK A01 T02670163  RH  055%=      5-min Rain = 0
KASU 040310Z 05001KT 27/16 A2997 RMK A01 T02660159  RH  054%=      5-min Rain = 0
KASU 040315Z 05003KT 27/15 A2997 RMK A01 T02650149  RH  051%=      5-min Rain = 0
KASU 040320Z 06004KT 27/14 A2998 RMK A01 T02680137  RH  046%=      5-min Rain = 0
KASU 040325Z 06003KT 27/14 A2998 RMK A01 T02700137  RH  046%=      5-min Rain = 0
KASU 040330Z 04002KT 27/15 A2998 RMK A01 T02690146  RH  049%=      5-min Rain = 0
KASU 040335Z 04003KT 27/14 A2998 RMK A01 T02690143  RH  048%=      5-min Rain = 0
KASU 040340Z 05002KT 27/16 A2998 RMK A01 T02670155  RH  053%=      5-min Rain = 0
KASU 040345Z 06003KT 27/14 A2998 RMK A01 T02650142  RH  049%=      5-min Rain = 0
KASU 040350Z 05003KT 26/15 A2999 RMK A01 T02640149  RH  051%=      5-min Rain = 0
KASU 040355Z 06003KT 26/14 A2999 RMK A01 T02630140  RH  049%=      5-min Rain = 0
KASU 040400Z 07004KT 27/13 A2999 RMK A01 T02660131  RH  045%=      5-min Rain = 0
KASU 040405Z 06004KT 27/13 A2999 RMK A01 T02660130  RH  045%=      5-min Rain = 0
KASU 040410Z 06004KT 27/13 A2999 RMK A01 T02650130  RH  045%=      5-min Rain = 0
KASU 040415Z 06004KT 27/13 A2999 RMK A01 T02650129  RH  045%=      5-min Rain = 0
KASU 040420Z 07005KT 26/13 A2999 RMK A01 T02640132  RH  046%=      5-min Rain = 0
KASU 040425Z 09007KT 25/15 A30 RMK A01 T02460152  RH  059%=      5-min Rain = 0
KASU 040430Z 10005KT 24/15 A30 RMK A01 T02440145  RH  056%=      5-min Rain = 0
KASU 040435Z 10006KT 25/14 A30 RMK A01 T02450144  RH  056%=      5-min Rain = 0
KASU 040440Z 09005KT 24/15 A30 RMK A01 T02420145  RH  057%=      5-min Rain = 0
KASU 040445Z 10003KT 24/15 A30 RMK A01 T02410145  RH  057%=      5-min Rain = 0
KASU 040450Z 09003KT 24/15 A30 RMK A01 T02410145  RH  057%=      5-min Rain = 0
KASU 040455Z 09005KT 24/14 A30 RMK A01 T02430142  RH  056%=      5-min Rain = 0

Page generated in 0.0153 seconds.